Terminal Aerodrome Forecast
Issued by NWS

Home | Current Version | Previous Version | Graphics & Text | Print | Product List | Glossary On
Versions: 1 2 3 4 5 6 7 8 9 10 11 12 13 14 15
333
FTUS43 KMPX 221120
TAFRWF
TAF
KRWF 221120Z 2212/2312 31010KT P6SM SKC
     FM221600 31012G21KT P6SM SKC
     FM230100 30005KT P6SM SKC
     FM231000 VRB03KT P6SM FEW120=

USA.gov is the U.S. government's official web portal to all federal, state and local government web resources and services.